createdAt,value
2022-09-27T00:00:33.897Z,17.20
2022-09-27T00:03:26.246Z,16.10
2022-09-27T00:06:07.828Z,15.80
2022-09-27T00:08:41.355Z,16.10
2022-09-27T00:11:21.536Z,15.80
2022-09-27T00:13:55.832Z,17.00
2022-09-27T00:16:31.720Z,16.20
2022-09-27T00:19:06.180Z,16.10
2022-09-27T00:21:39.482Z,17.00
2022-09-27T00:24:17.681Z,17.20
2022-09-27T00:26:51.322Z,17.70
2022-09-27T00:29:24.191Z,17.50
2022-09-27T00:31:57.003Z,17.90
2022-09-27T00:34:29.809Z,18.40
2022-09-27T00:37:02.435Z,19.30
2022-09-27T00:39:36.078Z,17.20
2022-09-27T00:42:13.379Z,18.80
2022-09-27T00:45:02.683Z,17.40
2022-09-27T00:47:42.367Z,19.60
2022-09-27T00:50:28.213Z,19.70
2022-09-27T00:53:14.154Z,20.70
2022-09-27T00:55:51.874Z,21.10
2022-09-27T00:58:32.278Z,19.60
2022-09-27T01:01:11.508Z,22.20
2022-09-27T01:03:50.380Z,21.70
2022-09-27T01:06:25.605Z,23.40
2022-09-27T01:08:58.056Z,23.90
2022-09-27T01:11:44.378Z,22.70
2022-09-27T01:14:53.203Z,22.90
2022-09-27T01:17:40.751Z,25.70
2022-09-27T01:20:35.263Z,25.40
2022-09-27T01:23:34.550Z,23.40
2022-09-27T01:26:18.391Z,22.80
2022-09-27T01:29:01.618Z,23.00
2022-09-27T01:31:41.595Z,24.50
2022-09-27T01:34:24.838Z,27.80
2022-09-27T01:37:07.317Z,28.10
2022-09-27T01:39:48.858Z,26.10
2022-09-27T01:42:41.947Z,27.60
2022-09-27T01:45:21.505Z,29.90
2022-09-27T01:48:03.278Z,30.70
2022-09-27T01:51:05.625Z,33.40
2022-09-27T01:53:42.325Z,32.00
2022-09-27T01:56:33.026Z,33.60
2022-09-27T01:59:17.299Z,33.80
2022-09-27T02:01:59.519Z,35.60
2022-09-27T02:04:40.293Z,33.10
2022-09-27T02:07:24.600Z,34.40
2022-09-27T02:10:03.661Z,33.90
2022-09-27T02:12:53.820Z,33.60
2022-09-27T02:15:33.489Z,31.40
2022-09-27T02:18:31.238Z,32.70
2022-09-27T02:23:41.585Z,31.40
2022-09-27T02:26:22.279Z,31.70
2022-09-27T02:29:02.421Z,29.80
2022-09-27T02:31:41.798Z,27.70
2022-09-27T02:34:20.212Z,27.20
2022-09-27T02:36:53.592Z,28.30
2022-09-27T02:39:27.520Z,27.20
2022-09-27T02:42:06.875Z,26.80
2022-09-27T02:44:40.957Z,27.50
2022-09-27T02:47:35.921Z,27.40
2022-09-27T02:50:29.441Z,27.10
2022-09-27T02:53:31.544Z,27.50
2022-09-27T02:56:17.978Z,25.60
2022-09-27T02:59:19.510Z,25.10
2022-09-27T03:02:18.214Z,23.10
2022-09-27T03:05:07.240Z,24.40
2022-09-27T03:07:40.367Z,25.40
2022-09-27T03:10:19.815Z,24.40
2022-09-27T03:12:53.511Z,25.10
2022-09-27T03:15:26.261Z,25.00
2022-09-27T03:18:08.093Z,26.00
2022-09-27T03:20:59.175Z,25.80
2022-09-27T03:23:32.349Z,24.90
2022-09-27T03:26:12.725Z,26.50
2022-09-27T03:28:46.175Z,26.60
2022-09-27T03:31:18.625Z,26.20
2022-09-27T03:34:15.133Z,26.00
2022-09-27T03:36:50.711Z,27.80
2022-09-27T03:39:23.500Z,25.90
2022-09-27T03:41:56.092Z,26.30
2022-09-27T03:44:28.459Z,28.40
2022-09-27T03:47:03.304Z,27.80
2022-09-27T03:49:41.029Z,29.60
2022-09-27T03:52:17.791Z,27.80
2022-09-27T03:54:50.407Z,29.30
2022-09-27T03:57:26.184Z,28.60
2022-09-27T04:00:00.005Z,29.70
2022-09-27T04:02:47.950Z,28.00
2022-09-27T04:05:30.145Z,29.00
2022-09-27T04:08:10.718Z,29.60
2022-09-27T04:10:45.336Z,27.40
2022-09-27T04:13:18.203Z,27.00
2022-09-27T04:15:57.914Z,25.60
2022-09-27T04:19:08.941Z,27.30
2022-09-27T04:22:06.387Z,24.40
2022-09-27T04:24:40.925Z,25.60
2022-09-27T04:27:29.306Z,24.30
2022-09-27T04:30:06.438Z,24.70
2022-09-27T04:32:59.411Z,23.00
2022-09-27T04:36:11.213Z,25.00
2022-09-27T04:38:48.193Z,24.90
2022-09-27T04:41:29.978Z,24.90
2022-09-27T04:44:02.714Z,25.50
2022-09-27T04:46:37.089Z,25.20
2022-09-27T04:49:09.811Z,26.40
2022-09-27T04:51:42.969Z,25.80
2022-09-27T04:54:16.391Z,24.60
2022-09-27T04:57:12.392Z,24.00
2022-09-27T04:59:45.613Z,26.60
2022-09-27T05:02:18.923Z,25.70
2022-09-27T05:05:14.696Z,27.60
2022-09-27T05:07:47.997Z,26.60
2022-09-27T05:10:30.714Z,27.20
2022-09-27T05:13:03.249Z,26.80
2022-09-27T05:15:36.447Z,24.90
2022-09-27T05:18:50.547Z,24.50
2022-09-27T05:21:45.859Z,24.30
2022-09-27T05:24:18.718Z,24.10
2022-09-27T05:26:54.915Z,22.70
2022-09-27T05:29:27.674Z,27.30
2022-09-27T05:32:23.797Z,26.60
2022-09-27T05:35:04.283Z,29.50
2022-09-27T05:37:41.328Z,39.60
2022-09-27T05:40:36.630Z,38.50
2022-09-27T05:43:09.846Z,40.40
2022-09-27T05:45:44.355Z,37.40
2022-09-27T05:48:17.397Z,37.50
2022-09-27T05:51:02.077Z,35.50
2022-09-27T05:53:37.485Z,35.30
2022-09-27T05:56:15.192Z,34.60
2022-09-27T05:59:16.689Z,31.20
2022-09-27T06:02:08.016Z,32.90
2022-09-27T06:05:01.015Z,30.50
2022-09-27T06:08:01.759Z,31.30
2022-09-27T06:10:40.111Z,29.00
2022-09-27T06:13:15.325Z,31.00
2022-09-27T06:15:50.968Z,32.20
2022-09-27T06:18:23.917Z,29.70
2022-09-27T06:20:56.784Z,28.50
2022-09-27T06:23:29.293Z,29.50
2022-09-27T06:26:06.395Z,29.00
2022-09-27T06:28:51.262Z,30.60
2022-09-27T06:31:29.012Z,31.70
2022-09-27T06:34:14.014Z,30.30
2022-09-27T06:36:49.436Z,31.10
2022-09-27T06:39:23.759Z,33.40
2022-09-27T06:42:02.751Z,35.90
2022-09-27T06:44:54.423Z,36.90
2022-09-27T06:47:30.207Z,38.80
2022-09-27T06:50:21.632Z,37.10
2022-09-27T06:52:53.906Z,41.30
2022-09-27T06:55:26.254Z,35.40
2022-09-27T06:58:17.027Z,34.50
2022-09-27T07:01:09.190Z,33.60
2022-09-27T07:04:00.121Z,32.50
2022-09-27T07:06:58.296Z,30.00
2022-09-27T07:09:34.817Z,26.60
2022-09-27T07:12:07.494Z,23.90
2022-09-27T07:14:40.245Z,21.10
2022-09-27T07:17:17.154Z,20.90
2022-09-27T07:19:51.910Z,18.80
2022-09-27T07:22:24.679Z,18.60
2022-09-27T07:25:01.512Z,18.00
2022-09-27T07:27:38.376Z,17.70
2022-09-27T07:30:16.521Z,19.30
2022-09-27T07:32:48.992Z,17.40
2022-09-27T07:35:24.599Z,18.00
2022-09-27T07:37:58.977Z,17.80
2022-09-27T07:40:31.292Z,16.60
2022-09-27T07:43:04.120Z,14.70
2022-09-27T07:45:36.878Z,14.20
2022-09-27T07:48:29.931Z,13.70
2022-09-27T07:51:27.211Z,14.10
2022-09-27T07:54:10.585Z,12.50
2022-09-27T07:57:00.882Z,13.00
2022-09-27T07:59:33.750Z,12.10
2022-09-27T08:02:06.880Z,12.10
2022-09-27T08:04:39.903Z,11.80
2022-09-27T08:07:14.470Z,11.60
2022-09-27T08:09:49.190Z,11.70
2022-09-27T08:12:22.601Z,10.90
2022-09-27T08:15:00.543Z,9.80
2022-09-27T08:17:34.004Z,9.90
2022-09-27T08:20:29.050Z,10.20
2022-09-27T08:23:13.026Z,9.70
2022-09-27T08:25:55.660Z,9.70
2022-09-27T08:28:40.943Z,8.50
2022-09-27T08:31:25.516Z,8.60
2022-09-27T08:34:00.914Z,9.70
2022-09-27T08:36:36.474Z,8.00
2022-09-27T08:39:11.775Z,7.10
2022-09-27T08:41:56.523Z,7.80
2022-09-27T08:44:36.409Z,7.50
2022-09-27T08:47:18.778Z,6.30
2022-09-27T08:49:56.518Z,6.20
2022-09-27T08:52:34.841Z,5.70
2022-09-27T08:55:24.184Z,6.30
2022-09-27T08:57:59.869Z,5.70
2022-09-27T09:00:33.553Z,6.00
2022-09-27T09:03:05.830Z,5.90
2022-09-27T09:05:41.290Z,5.90
2022-09-27T09:08:32.278Z,4.50
2022-09-27T09:11:34.883Z,3.80
2022-09-27T09:14:30.622Z,4.30
2022-09-27T09:17:17.697Z,4.10
2022-09-27T09:20:37.328Z,3.80
2022-09-27T09:23:43.990Z,3.90
2022-09-27T09:26:26.165Z,3.90
2022-09-27T09:29:11.553Z,4.00
2022-09-27T09:31:53.411Z,4.50
2022-09-27T09:34:30.402Z,4.30
2022-09-27T09:37:07.181Z,4.00
2022-09-27T09:39:45.841Z,4.30
2022-09-27T09:42:27.054Z,4.30
2022-09-27T09:45:05.731Z,4.30
2022-09-27T09:47:43.213Z,4.40
2022-09-27T09:50:22.016Z,3.70
2022-09-27T09:53:00.692Z,4.30
2022-09-27T09:58:22.847Z,6.70
2022-09-27T10:01:12.041Z,4.20
2022-09-27T10:03:47.962Z,6.00
2022-09-27T10:06:21.900Z,7.10
2022-09-27T10:08:55.926Z,5.80
2022-09-27T10:11:41.287Z,9.00
2022-09-27T10:14:20.067Z,5.50
2022-09-27T10:16:58.890Z,4.80
2022-09-27T10:19:34.413Z,5.20
2022-09-27T10:22:18.416Z,5.30
2022-09-27T10:25:01.959Z,5.30
2022-09-27T10:28:05.502Z,5.80
2022-09-27T10:30:39.022Z,5.90
2022-09-27T10:33:20.169Z,6.40
2022-09-27T10:36:26.514Z,5.60
2022-09-27T10:39:01.733Z,6.10
2022-09-27T10:41:41.604Z,5.10
2022-09-27T10:44:43.125Z,4.10
2022-09-27T10:47:39.416Z,4.00
2022-09-27T10:50:58.921Z,4.00
2022-09-27T10:53:55.709Z,3.50
2022-09-27T10:56:36.491Z,4.10
2022-09-27T10:59:20.976Z,3.80
2022-09-27T11:01:54.003Z,4.00
2022-09-27T11:04:40.175Z,4.50
2022-09-27T11:07:20.435Z,3.40
2022-09-27T11:10:22.855Z,3.40
2022-09-27T11:16:11.065Z,3.80
2022-09-27T11:21:31.953Z,3.30
2022-09-27T11:24:30.536Z,4.90
2022-09-27T11:27:18.477Z,4.80
2022-09-27T11:30:04.759Z,3.90
2022-09-27T11:33:22.138Z,4.50
2022-09-27T11:36:05.382Z,4.10
2022-09-27T11:38:53.283Z,4.00
2022-09-27T11:41:40.477Z,4.60
2022-09-27T11:44:31.737Z,4.30
2022-09-27T11:47:17.372Z,4.10
2022-09-27T11:50:11.722Z,3.70
2022-09-27T11:52:58.643Z,3.90
2022-09-27T11:55:43.964Z,3.90
2022-09-27T11:58:27.953Z,3.90
2022-09-27T12:01:17.576Z,4.00
2022-09-27T12:04:08.642Z,3.50
2022-09-27T12:06:50.994Z,3.70
2022-09-27T12:09:27.298Z,3.70
2022-09-27T12:12:05.856Z,3.70
2022-09-27T12:14:42.086Z,4.00
2022-09-27T12:17:19.025Z,3.40
2022-09-27T12:19:56.080Z,3.30
2022-09-27T12:23:00.037Z,3.60
2022-09-27T12:25:46.911Z,3.50
2022-09-27T12:28:34.779Z,4.00
2022-09-27T12:31:34.787Z,3.50
2022-09-27T12:34:19.769Z,4.10
2022-09-27T12:37:00.951Z,3.90
2022-09-27T12:39:47.289Z,4.20
2022-09-27T12:42:31.334Z,3.90
2022-09-27T12:45:06.702Z,3.80
2022-09-27T12:47:58.042Z,3.80
2022-09-27T12:50:38.051Z,4.00
2022-09-27T12:53:20.122Z,3.50
2022-09-27T12:56:16.131Z,4.10
2022-09-27T12:59:26.475Z,4.50
2022-09-27T13:02:23.239Z,3.90
2022-09-27T13:05:15.376Z,3.90
2022-09-27T13:07:57.847Z,4.40
2022-09-27T13:10:58.537Z,4.40
2022-09-27T13:19:18.098Z,4.20
2022-09-27T13:31:05.494Z,4.00
2022-09-27T14:02:21.059Z,6.10
2022-09-27T14:13:43.968Z,7.90
2022-09-27T14:16:39.827Z,5.20
2022-09-27T14:25:04.944Z,6.30
2022-09-27T14:28:50.212Z,8.30
2022-09-27T14:40:44.712Z,23.30
2022-09-27T14:48:56.665Z,9.50
2022-09-27T14:51:31.886Z,21.50
2022-09-27T14:58:35.965Z,28.30
2022-09-27T15:05:21.093Z,60.10
2022-09-27T15:13:18.506Z,10.70
2022-09-27T15:16:39.456Z,8.00
2022-09-27T15:19:35.997Z,14.80
2022-09-27T15:31:11.679Z,4.00
2022-09-27T15:38:39.666Z,3.40
2022-09-27T15:50:21.298Z,10.80
2022-09-27T15:56:52.232Z,12.60
2022-09-27T16:18:00.914Z,29.30
2022-09-27T16:25:28.143Z,9.30
2022-09-27T16:28:55.910Z,7.80
2022-09-27T16:36:43.640Z,6.40
2022-09-27T16:39:25.140Z,5.70
2022-09-27T17:04:56.135Z,5.50
2022-09-27T17:07:35.683Z,5.00
2022-09-27T17:14:36.103Z,4.40
2022-09-27T17:22:47.577Z,6.70
2022-09-27T17:25:22.522Z,7.20
2022-09-27T17:28:01.192Z,9.00
2022-09-27T17:30:35.126Z,9.20
2022-09-27T17:33:14.850Z,10.30
2022-09-27T17:35:47.969Z,10.00
2022-09-27T17:38:28.086Z,11.90
2022-09-27T17:45:35.322Z,11.70
2022-09-27T17:53:04.532Z,12.90
2022-09-27T17:55:40.134Z,12.20
2022-09-27T17:59:08.883Z,12.20
2022-09-27T18:06:34.129Z,9.90
2022-09-27T18:09:14.839Z,11.00
2022-09-27T18:30:12.173Z,10.60
2022-09-27T18:33:55.167Z,11.60
2022-09-27T18:40:58.973Z,11.30
2022-09-27T18:43:35.351Z,11.60
2022-09-27T18:47:05.874Z,11.70
2022-09-27T18:49:40.973Z,11.80
2022-09-27T18:53:09.061Z,11.50
2022-09-27T19:00:32.940Z,11.40
2022-09-27T19:15:28.432Z,17.70
2022-09-27T19:18:07.058Z,18.70
2022-09-27T19:20:39.329Z,16.90
2022-09-27T19:31:13.472Z,20.80
2022-09-27T19:39:06.259Z,22.50
2022-09-27T19:41:45.828Z,31.10
2022-09-27T19:44:19.222Z,24.70
2022-09-27T19:46:57.979Z,26.00
2022-09-27T19:49:30.529Z,26.90
2022-09-27T19:52:50.043Z,26.90
2022-09-27T19:55:25.204Z,26.20
2022-09-27T19:58:47.228Z,26.80
2022-09-27T20:01:27.004Z,30.50
2022-09-27T20:08:48.979Z,26.60
2022-09-27T20:11:29.908Z,24.00
2022-09-27T20:14:20.106Z,25.20
2022-09-27T20:17:24.913Z,25.60
2022-09-27T20:19:57.018Z,28.50
2022-09-27T20:22:38.192Z,27.40
2022-09-27T20:48:26.991Z,23.60
2022-09-27T20:51:04.753Z,42.50
2022-09-27T20:54:33.287Z,38.30
2022-09-27T21:01:55.732Z,22.50
2022-09-27T21:04:33.928Z,26.80
2022-09-27T21:07:06.668Z,24.20
2022-09-27T21:09:45.002Z,19.80
2022-09-27T21:12:17.033Z,16.80
2022-09-27T21:14:58.050Z,15.80
2022-09-27T21:17:30.110Z,14.60
2022-09-27T21:20:10.633Z,14.30
2022-09-27T21:22:42.869Z,15.10
2022-09-27T21:25:23.527Z,14.60
2022-09-27T21:28:46.458Z,15.00
2022-09-27T21:31:27.230Z,15.00
2022-09-27T21:35:50.678Z,15.40
2022-09-27T21:38:32.886Z,16.30
2022-09-27T21:46:46.291Z,15.70
2022-09-27T21:49:25.047Z,16.80
2022-09-27T21:56:48.234Z,21.20
2022-09-27T21:59:27.133Z,18.10
2022-09-27T22:01:59.483Z,20.10
2022-09-27T22:04:38.447Z,18.70
2022-09-27T22:07:11.276Z,16.30
2022-09-27T22:09:50.075Z,15.80
2022-09-27T22:12:22.576Z,15.20
2022-09-27T22:15:01.058Z,14.80
2022-09-27T22:17:33.457Z,15.30
2022-09-27T22:25:17.824Z,11.50
2022-09-27T22:27:50.269Z,13.90
2022-09-27T22:30:29.429Z,12.90
2022-09-27T22:33:04.946Z,11.80
2022-09-27T22:40:48.921Z,13.30
2022-09-27T22:48:11.290Z,9.70
2022-09-27T22:50:50.171Z,9.30
2022-09-27T22:53:22.627Z,10.20
2022-09-27T22:56:04.477Z,10.60
2022-09-27T22:59:27.671Z,9.50
2022-09-27T23:02:08.342Z,9.80
2022-09-27T23:11:52.789Z,7.30
2022-09-27T23:14:31.907Z,8.80
2022-09-27T23:17:04.595Z,8.30
2022-09-27T23:19:45.091Z,6.70
2022-09-27T23:24:54.202Z,6.60
2022-09-27T23:31:31.509Z,6.30
2022-09-27T23:34:10.401Z,6.00
2022-09-27T23:36:42.468Z,5.50
2022-09-27T23:39:21.284Z,5.70
2022-09-27T23:51:19.285Z,8.60
2022-09-27T23:54:41.300Z,8.50
